Terminal Aerodrome Forecast
Issued by NWS Cheyenne, WY

Home | Current Version | Previous Version | Text Only | Print | Product List | Glossary On
Versions: 1 2 3 4 5 6 7 8 9 10 11 12 13 14 15 16 17 18 19
000
FTUS45 KCYS 280520
TAFCYS
TAF
KCYS 280520Z 2806/2906 17010KT P6SM -RA BKN010 OVC025
     FM280900 35007KT 5SM -RASN OVC007
     FM281200 09011KT 1 1/2SM -RASN BKN003 OVC007
     FM282200 01016G23KT 3/4SM -SN OVC003=

USA.gov is the U.S. government's official web portal to all federal, state and local government web resources and services.